createdAt,value
2018-06-24T00:01:51.912Z,57.70
2018-06-24T00:03:56.547Z,57.70
2018-06-24T00:06:00.961Z,57.70
2018-06-24T00:08:05.366Z,57.60
2018-06-24T00:10:10.679Z,57.60
2018-06-24T00:12:15.177Z,57.70
2018-06-24T00:14:19.631Z,57.90
2018-06-24T00:16:23.995Z,57.90
2018-06-24T00:18:28.478Z,57.90
2018-06-24T00:20:32.876Z,58.00
2018-06-24T00:22:37.316Z,58.00
2018-06-24T00:24:41.713Z,58.10
2018-06-24T00:28:50.777Z,58.20
2018-06-24T00:30:55.319Z,58.00
2018-06-24T00:32:59.809Z,58.10
2018-06-24T00:35:04.284Z,58.30
2018-06-24T00:37:08.960Z,58.30
2018-06-24T00:39:13.391Z,58.30
2018-06-24T00:41:17.835Z,58.30
2018-06-24T00:43:22.261Z,58.30
2018-06-24T00:45:26.670Z,58.30
2018-06-24T00:47:31.104Z,58.40
2018-06-24T00:49:35.594Z,58.50
2018-06-24T00:51:39.999Z,58.50
2018-06-24T00:53:44.427Z,58.70
2018-06-24T00:55:48.843Z,58.80
2018-06-24T00:57:53.244Z,58.80
2018-06-24T01:00:14.459Z,58.90
2018-06-24T01:04:29.543Z,59.00
2018-06-24T01:06:36.028Z,59.00
2018-06-24T01:08:42.704Z,59.10
2018-06-24T01:10:51.345Z,59.00
2018-06-24T01:15:07.007Z,59.00
2018-06-24T01:17:12.619Z,59.00
2018-06-24T01:19:19.211Z,58.90
2018-06-24T01:23:25.583Z,59.00
2018-06-24T01:25:32.011Z,59.00
2018-06-24T01:27:40.356Z,59.00
2018-06-24T01:29:47.991Z,58.80
2018-06-24T01:31:52.394Z,59.10
2018-06-24T01:34:00.028Z,59.20
2018-06-24T01:36:07.723Z,59.30
2018-06-24T01:38:14.652Z,59.30
2018-06-24T01:40:22.836Z,59.40
2018-06-24T01:42:30.106Z,59.30
2018-06-24T01:44:36.770Z,58.80
2018-06-24T01:46:42.994Z,59.30
2018-06-24T01:48:51.355Z,59.30
2018-06-24T01:50:58.532Z,59.30
2018-06-24T01:55:13.843Z,59.30
2018-06-24T01:57:21.162Z,59.30
2018-06-24T01:59:27.647Z,59.40
2018-06-24T02:01:36.275Z,59.40
2018-06-24T02:03:44.262Z,59.20
2018-06-24T02:05:51.763Z,59.20
2018-06-24T02:07:57.615Z,59.10
2018-06-24T02:10:05.895Z,59.00
2018-06-24T02:12:11.494Z,59.00
2018-06-24T02:14:18.719Z,59.10
2018-06-24T02:16:26.964Z,59.00
2018-06-24T02:18:32.720Z,59.00
2018-06-24T02:20:37.251Z,59.00
2018-06-24T02:22:41.818Z,59.10
2018-06-24T02:24:46.255Z,59.20
2018-06-24T02:26:50.700Z,59.10
2018-06-24T02:28:55.103Z,59.10
2018-06-24T02:30:59.563Z,59.20
2018-06-24T02:33:04.075Z,59.20
2018-06-24T02:35:08.543Z,59.30
2018-06-24T02:37:13.049Z,59.40
2018-06-24T02:39:17.483Z,59.50
2018-06-24T02:41:22.095Z,59.60
2018-06-24T02:43:26.548Z,59.60
2018-06-24T02:45:31.030Z,59.70
2018-06-24T02:47:35.447Z,59.70
2018-06-24T02:49:40.447Z,59.70
2018-06-24T02:51:44.886Z,59.80
2018-06-24T02:53:49.300Z,59.70
2018-06-24T02:55:53.715Z,59.70
2018-06-24T02:57:58.214Z,60.60
2018-06-24T03:00:02.838Z,59.90
2018-06-24T03:02:07.415Z,60.00
2018-06-24T03:04:11.840Z,60.10
2018-06-24T03:06:16.291Z,60.10
2018-06-24T03:08:20.762Z,60.10
2018-06-24T03:10:25.204Z,60.10
2018-06-24T03:12:29.684Z,60.20
2018-06-24T03:14:34.124Z,59.80
2018-06-24T03:16:38.764Z,60.20
2018-06-24T03:18:43.475Z,60.30
2018-06-24T03:22:52.194Z,60.40
2018-06-24T03:24:56.631Z,60.60
2018-06-24T03:27:01.247Z,60.60
2018-06-24T03:29:05.718Z,60.70
2018-06-24T03:31:10.157Z,60.80
2018-06-24T03:33:14.608Z,60.90
2018-06-24T03:35:19.042Z,61.80
2018-06-24T03:37:23.515Z,61.00
2018-06-24T03:39:28.275Z,61.00
2018-06-24T03:41:32.695Z,61.00
2018-06-24T03:43:37.088Z,61.20
2018-06-24T03:45:41.516Z,61.30
2018-06-24T03:47:45.931Z,61.30
2018-06-24T03:49:50.360Z,61.40
2018-06-24T03:51:54.775Z,61.40
2018-06-24T03:56:03.443Z,61.50
2018-06-24T04:00:16.496Z,61.70
2018-06-24T04:02:25.367Z,61.80
2018-06-24T04:04:32.107Z,61.90
2018-06-24T04:06:38.151Z,61.80
2018-06-24T04:08:44.220Z,61.80
2018-06-24T04:10:51.303Z,62.00
2018-06-24T04:12:59.659Z,62.10
2018-06-24T04:15:07.052Z,62.20
2018-06-24T04:17:13.319Z,62.20
2018-06-24T04:19:21.232Z,62.10
2018-06-24T04:21:26.843Z,62.20
2018-06-24T04:23:31.358Z,62.30
2018-06-24T04:25:35.759Z,62.50
2018-06-24T04:27:40.416Z,62.40
2018-06-24T04:29:44.846Z,62.40
2018-06-24T04:31:49.335Z,62.50
2018-06-24T04:33:53.716Z,62.50
2018-06-24T04:35:58.125Z,62.30
2018-06-24T04:38:02.609Z,62.30
2018-06-24T04:40:07.270Z,62.40
2018-06-24T04:42:11.694Z,62.40
2018-06-24T04:44:16.099Z,62.50
2018-06-24T04:46:20.494Z,62.40
2018-06-24T04:48:24.926Z,62.40
2018-06-24T04:50:29.393Z,62.40
2018-06-24T04:52:33.902Z,62.50
2018-06-24T04:54:38.361Z,63.40
2018-06-24T04:56:42.806Z,63.00
2018-06-24T05:00:51.762Z,62.80
2018-06-24T05:02:56.236Z,62.70
2018-06-24T05:05:00.740Z,62.80
2018-06-24T05:07:05.187Z,63.00
2018-06-24T05:09:10.693Z,62.80
2018-06-24T05:11:15.203Z,63.00
2018-06-24T05:15:23.777Z,63.10
2018-06-24T05:17:28.215Z,63.90
2018-06-24T05:19:32.644Z,63.10
2018-06-24T05:21:37.131Z,63.10
2018-06-24T05:23:41.622Z,63.30
2018-06-24T05:25:48.750Z,64.00
2018-06-24T05:27:53.230Z,63.30
2018-06-24T05:29:57.642Z,63.40
2018-06-24T05:32:02.096Z,63.30
2018-06-24T05:34:06.630Z,63.30
2018-06-24T05:36:11.066Z,63.40
2018-06-24T05:38:15.542Z,63.40
2018-06-24T05:40:20.468Z,63.40
2018-06-24T05:42:24.874Z,63.70
2018-06-24T05:44:29.314Z,63.50
2018-06-24T05:46:34.015Z,63.50
2018-06-24T05:48:38.418Z,63.60
2018-06-24T05:50:42.861Z,63.60
2018-06-24T05:52:47.335Z,63.50
2018-06-24T05:54:51.734Z,63.60
2018-06-24T05:56:56.154Z,63.60
2018-06-24T05:59:00.647Z,63.50
2018-06-24T06:01:05.203Z,63.30
2018-06-24T06:03:09.746Z,63.20
2018-06-24T06:05:14.322Z,63.10
2018-06-24T06:07:18.774Z,63.20
2018-06-24T06:09:23.273Z,63.40
2018-06-24T06:11:27.740Z,63.50
2018-06-24T06:13:32.271Z,63.20
2018-06-24T06:15:36.726Z,63.10
2018-06-24T06:17:41.181Z,63.00
2018-06-24T06:19:45.727Z,63.10
2018-06-24T06:21:50.294Z,63.10
2018-06-24T06:23:54.762Z,63.00
2018-06-24T06:25:59.211Z,62.80
2018-06-24T06:28:03.740Z,62.80
2018-06-24T06:30:09.260Z,62.80
2018-06-24T06:32:13.847Z,62.70
2018-06-24T06:34:18.310Z,62.70
2018-06-24T06:36:22.736Z,62.60
2018-06-24T06:38:27.343Z,62.60
2018-06-24T06:40:31.839Z,62.60
2018-06-24T06:44:44.547Z,62.70
2018-06-24T06:46:48.967Z,61.90
2018-06-24T06:48:53.935Z,61.60
2018-06-24T06:50:58.461Z,61.40
2018-06-24T06:53:03.019Z,61.20
2018-06-24T06:55:08.289Z,61.10
2018-06-24T06:57:12.758Z,61.10
2018-06-24T06:59:17.792Z,61.90
2018-06-24T07:01:22.954Z,60.90
2018-06-24T07:03:27.867Z,61.30
2018-06-24T07:05:32.344Z,61.20
2018-06-24T07:07:36.776Z,61.10
2018-06-24T07:09:42.041Z,60.80
2018-06-24T07:13:50.710Z,60.20
2018-06-24T07:15:55.342Z,60.10
2018-06-24T07:18:00.322Z,60.00
2018-06-24T07:20:04.928Z,59.90
2018-06-24T07:22:09.841Z,59.70
2018-06-24T07:24:14.287Z,59.50
2018-06-24T07:26:18.745Z,59.40
2018-06-24T07:28:23.228Z,59.50
2018-06-24T07:30:27.715Z,59.40
2018-06-24T07:32:32.180Z,59.40
2018-06-24T07:34:36.627Z,59.20
2018-06-24T07:36:41.077Z,59.20
2018-06-24T07:38:45.590Z,59.20
2018-06-24T07:40:50.741Z,59.20
2018-06-24T07:42:55.227Z,58.90
2018-06-24T07:45:00.068Z,58.70
2018-06-24T07:47:04.524Z,58.30
2018-06-24T07:49:08.971Z,58.40
2018-06-24T07:51:13.440Z,58.50
2018-06-24T07:53:17.893Z,58.50
2018-06-24T07:55:22.426Z,58.10
2018-06-24T07:57:27.482Z,57.90
2018-06-24T07:59:32.010Z,57.80
2018-06-24T08:01:36.776Z,57.60
2018-06-24T08:03:41.731Z,58.20
2018-06-24T08:05:46.216Z,57.60
2018-06-24T08:07:51.194Z,57.40
2018-06-24T08:09:55.679Z,57.20
2018-06-24T08:12:00.194Z,57.10
2018-06-24T08:14:05.628Z,57.30
2018-06-24T08:20:18.474Z,56.90
2018-06-24T08:22:24.040Z,56.70
2018-06-24T08:24:28.635Z,56.80
2018-06-24T08:26:33.099Z,56.90
2018-06-24T08:28:37.612Z,57.00
2018-06-24T08:30:42.175Z,57.20
2018-06-24T08:32:46.897Z,57.00
2018-06-24T08:34:51.431Z,56.60
2018-06-24T08:36:56.467Z,56.40
2018-06-24T08:39:01.099Z,56.20
2018-06-24T08:41:06.960Z,56.80
2018-06-24T08:43:11.396Z,57.00
2018-06-24T08:45:16.460Z,57.40
2018-06-24T08:47:20.919Z,57.40
2018-06-24T08:49:25.454Z,57.80
2018-06-24T08:53:34.888Z,58.30
2018-06-24T08:55:39.384Z,58.30
2018-06-24T08:57:43.842Z,58.20
2018-06-24T08:59:48.357Z,58.00
2018-06-24T09:01:52.930Z,57.50
2018-06-24T09:03:57.366Z,57.20
2018-06-24T09:06:01.797Z,56.60
2018-06-24T09:08:07.103Z,56.70
2018-06-24T09:10:11.780Z,56.80
2018-06-24T09:12:16.206Z,57.10
2018-06-24T09:14:20.623Z,57.10
2018-06-24T09:16:25.103Z,57.20
2018-06-24T09:18:29.519Z,56.90
2018-06-24T09:20:34.027Z,57.00
2018-06-24T09:22:38.578Z,56.60
2018-06-24T09:24:43.209Z,56.60
2018-06-24T09:26:47.673Z,56.30
2018-06-24T09:28:52.147Z,56.20
2018-06-24T09:30:56.660Z,56.10
2018-06-24T09:33:02.687Z,56.20
2018-06-24T09:39:17.522Z,55.40
2018-06-24T09:41:22.378Z,55.20
2018-06-24T09:43:27.160Z,54.90
2018-06-24T09:45:32.155Z,54.70
2018-06-24T09:47:36.606Z,54.90
2018-06-24T09:49:41.195Z,54.80
2018-06-24T09:51:45.735Z,54.40
2018-06-24T09:53:50.408Z,54.70
2018-06-24T09:55:54.916Z,54.80
2018-06-24T09:58:00.036Z,54.50
2018-06-24T10:00:05.147Z,54.40
2018-06-24T10:02:09.698Z,54.30
2018-06-24T10:04:14.325Z,54.10
2018-06-24T10:06:18.867Z,53.90
2018-06-24T10:08:23.380Z,53.80
2018-06-24T10:10:27.931Z,53.70
2018-06-24T10:12:32.358Z,53.50
2018-06-24T10:14:36.770Z,53.40
2018-06-24T10:16:41.644Z,53.80
2018-06-24T10:20:50.743Z,53.80
2018-06-24T10:22:56.108Z,53.70
2018-06-24T10:25:00.510Z,53.90
2018-06-24T10:29:09.148Z,53.40
2018-06-24T10:31:13.647Z,53.60
2018-06-24T10:33:18.050Z,53.50
2018-06-24T10:35:23.176Z,53.20
2018-06-24T10:39:31.926Z,52.40
2018-06-24T10:41:36.404Z,52.60
2018-06-24T10:43:41.402Z,52.10
2018-06-24T10:45:45.894Z,51.80
2018-06-24T10:47:50.352Z,51.40
2018-06-24T10:49:55.025Z,51.60
2018-06-24T10:51:59.526Z,51.20
2018-06-24T10:54:05.085Z,51.20
2018-06-24T10:56:09.640Z,50.70
2018-06-24T10:58:14.132Z,50.20
2018-06-24T11:00:18.582Z,50.20
2018-06-24T11:02:23.229Z,50.00
2018-06-24T11:04:27.710Z,48.80
2018-06-24T11:06:32.242Z,48.50
2018-06-24T11:08:36.691Z,48.80
2018-06-24T11:10:41.463Z,49.00
2018-06-24T11:12:46.011Z,48.80
2018-06-24T11:14:51.110Z,48.80
2018-06-24T11:16:55.587Z,48.80
2018-06-24T11:19:00.006Z,48.80
2018-06-24T11:21:04.514Z,48.50
2018-06-24T11:23:09.040Z,48.60
2018-06-24T11:25:13.490Z,48.10
2018-06-24T11:29:23.529Z,46.90
2018-06-24T11:31:28.090Z,47.20
2018-06-24T11:33:32.612Z,46.50
2018-06-24T11:35:37.061Z,46.80
2018-06-24T11:37:41.519Z,46.60
2018-06-24T11:39:46.558Z,46.90
2018-06-24T11:41:51.002Z,47.30
2018-06-24T11:43:55.438Z,47.20
2018-06-24T11:46:00.143Z,46.80
2018-06-24T11:48:04.607Z,46.60
2018-06-24T11:50:09.006Z,45.90
2018-06-24T11:52:13.738Z,46.40
2018-06-24T11:54:18.324Z,46.10
2018-06-24T11:56:22.778Z,45.30
2018-06-24T11:58:27.735Z,45.10
2018-06-24T12:00:33.258Z,44.80
2018-06-24T12:02:38.716Z,44.30
2018-06-24T12:04:43.585Z,44.70
2018-06-24T12:06:48.019Z,44.50
2018-06-24T12:08:52.425Z,43.80
2018-06-24T12:10:59.318Z,43.50
2018-06-24T12:13:03.960Z,43.40
2018-06-24T12:15:08.858Z,43.80
2018-06-24T12:21:22.235Z,43.90
2018-06-24T12:23:26.808Z,43.50
2018-06-24T12:25:31.934Z,43.50
2018-06-24T12:27:36.811Z,43.80
2018-06-24T12:29:41.315Z,44.20
2018-06-24T12:31:46.014Z,44.80
2018-06-24T12:33:50.567Z,44.10
2018-06-24T12:35:55.118Z,44.20
2018-06-24T12:37:59.574Z,44.10
2018-06-24T12:40:04.051Z,44.30
2018-06-24T12:42:09.238Z,44.40
2018-06-24T12:44:13.799Z,44.30
2018-06-24T12:46:18.306Z,44.20
2018-06-24T12:48:24.125Z,44.10
2018-06-24T12:50:28.883Z,43.90
2018-06-24T12:52:33.353Z,44.10
2018-06-24T12:54:37.806Z,44.80
2018-06-24T12:56:42.315Z,44.70
2018-06-24T12:58:46.880Z,44.60
2018-06-24T13:00:52.505Z,44.80
2018-06-24T13:02:56.434Z,44.80
2018-06-24T13:05:00.847Z,44.60
2018-06-24T13:07:05.570Z,44.50
2018-06-24T13:09:10.641Z,44.70
2018-06-24T13:11:15.770Z,45.00
2018-06-24T13:13:20.284Z,44.80
2018-06-24T13:15:24.775Z,44.60
2018-06-24T13:17:29.771Z,44.50
2018-06-24T13:19:34.234Z,44.10
2018-06-24T13:21:38.767Z,44.10
2018-06-24T13:23:43.334Z,44.60
2018-06-24T13:25:47.832Z,44.40
2018-06-24T13:27:52.355Z,44.40
2018-06-24T13:29:56.815Z,44.70
2018-06-24T13:32:01.337Z,44.50
2018-06-24T13:34:06.074Z,44.80
2018-06-24T13:36:10.606Z,45.10
2018-06-24T13:40:19.364Z,45.00
2018-06-24T13:42:24.005Z,45.20
2018-06-24T13:44:28.430Z,45.20
2018-06-24T13:46:32.874Z,45.30
2018-06-24T13:48:37.360Z,45.20
2018-06-24T13:50:42.327Z,45.40
2018-06-24T13:52:46.856Z,45.00
2018-06-24T13:54:51.310Z,45.20
2018-06-24T13:56:55.748Z,45.10
2018-06-24T13:59:00.183Z,45.20
2018-06-24T14:01:04.754Z,45.60
2018-06-24T14:03:09.243Z,46.00
2018-06-24T14:05:13.676Z,45.60
2018-06-24T14:07:18.135Z,45.80
2018-06-24T14:09:23.219Z,45.80
2018-06-24T14:11:28.310Z,46.50
2018-06-24T14:13:32.773Z,46.10
2018-06-24T14:15:37.392Z,46.30
2018-06-24T14:17:42.415Z,46.30
2018-06-24T14:19:47.170Z,45.90
2018-06-24T14:23:55.900Z,46.00
2018-06-24T14:26:00.343Z,46.10
2018-06-24T14:28:04.884Z,46.30
2018-06-24T14:30:09.361Z,46.40
2018-06-24T14:32:13.909Z,46.90
2018-06-24T14:34:18.418Z,47.10
2018-06-24T14:36:22.936Z,46.90
2018-06-24T14:38:27.444Z,46.90
2018-06-24T14:40:31.889Z,47.20
2018-06-24T14:42:36.300Z,47.40
2018-06-24T14:44:40.987Z,47.40
2018-06-24T14:46:45.544Z,47.50
2018-06-24T14:48:50.036Z,47.60
2018-06-24T14:50:54.855Z,47.40
2018-06-24T14:55:03.762Z,47.80
2018-06-24T14:57:08.390Z,47.60
2018-06-24T15:01:17.028Z,47.90
2018-06-24T15:03:23.304Z,48.20
2018-06-24T15:05:27.928Z,48.30
2018-06-24T15:07:32.361Z,48.20
2018-06-24T15:09:36.817Z,48.10
2018-06-24T15:11:41.394Z,48.10
2018-06-24T15:13:45.860Z,48.40
2018-06-24T15:15:50.300Z,48.10
2018-06-24T15:17:54.724Z,48.40
2018-06-24T15:19:59.175Z,48.80
2018-06-24T15:22:03.727Z,49.10
2018-06-24T15:24:08.267Z,49.10
2018-06-24T15:26:12.799Z,48.80
2018-06-24T15:28:17.290Z,49.10
2018-06-24T15:30:22.465Z,49.00
2018-06-24T15:32:27.023Z,48.90
2018-06-24T15:34:31.472Z,48.80
2018-06-24T15:36:35.975Z,49.10
2018-06-24T15:38:41.163Z,49.30
2018-06-24T15:40:45.590Z,49.30
2018-06-24T15:42:50.069Z,49.40
2018-06-24T15:44:54.556Z,49.60
2018-06-24T15:46:59.005Z,49.70
2018-06-24T15:49:03.471Z,49.60
2018-06-24T15:51:07.914Z,49.70
2018-06-24T15:53:12.357Z,49.90
2018-06-24T15:55:16.831Z,50.50
2018-06-24T15:57:21.296Z,50.20
2018-06-24T15:59:25.832Z,50.20
2018-06-24T16:01:30.350Z,50.40
2018-06-24T16:03:34.954Z,50.60
2018-06-24T16:05:39.416Z,50.60
2018-06-24T16:07:44.562Z,50.70
2018-06-24T16:09:49.082Z,50.90
2018-06-24T16:11:53.544Z,51.00
2018-06-24T16:13:58.100Z,51.10
2018-06-24T16:16:03.356Z,51.30
2018-06-24T16:18:07.899Z,51.40
2018-06-24T16:20:12.407Z,51.90
2018-06-24T16:24:21.122Z,52.70
2018-06-24T16:26:25.655Z,52.80
2018-06-24T16:28:30.119Z,52.90
2018-06-24T16:30:35.139Z,52.90
2018-06-24T16:32:39.627Z,53.10
2018-06-24T16:34:44.175Z,53.40
2018-06-24T16:36:48.639Z,53.40
2018-06-24T16:38:53.079Z,53.70
2018-06-24T16:40:58.014Z,54.00
2018-06-24T16:43:02.446Z,54.30
2018-06-24T16:45:07.294Z,54.20
2018-06-24T16:47:11.817Z,54.40
2018-06-24T16:49:16.306Z,54.50
2018-06-24T16:51:20.751Z,54.80
2018-06-24T16:53:25.372Z,55.00
2018-06-24T16:55:29.865Z,55.40
2018-06-24T16:57:34.822Z,55.50
2018-06-24T16:59:39.284Z,56.10
2018-06-24T17:01:43.736Z,56.30
2018-06-24T17:03:48.261Z,56.50
2018-06-24T17:05:52.716Z,56.60
2018-06-24T17:07:57.110Z,56.80
2018-06-24T17:10:01.716Z,57.10
2018-06-24T17:12:06.248Z,57.30
2018-06-24T17:14:10.713Z,57.70
2018-06-24T17:16:15.508Z,57.70
2018-06-24T17:18:20.039Z,57.60
2018-06-24T17:20:24.559Z,58.00
2018-06-24T17:22:29.110Z,58.10
2018-06-24T17:24:33.606Z,58.30
2018-06-24T17:26:38.139Z,58.50
2018-06-24T17:28:42.701Z,58.30
2018-06-24T17:30:47.151Z,58.40
2018-06-24T17:32:51.619Z,58.10
2018-06-24T17:34:56.060Z,58.10
2018-06-24T17:37:01.094Z,58.10
2018-06-24T17:39:10.122Z,58.30
2018-06-24T17:41:14.566Z,58.70
2018-06-24T17:43:19.463Z,58.80
2018-06-24T17:45:23.911Z,58.90
2018-06-24T17:47:28.432Z,59.10
2018-06-24T17:49:32.846Z,59.00
2018-06-24T17:51:37.300Z,58.90
2018-06-24T17:53:41.712Z,58.90
2018-06-24T17:55:46.212Z,59.10
2018-06-24T17:57:50.688Z,59.10
2018-06-24T17:59:55.125Z,59.20
2018-06-24T18:02:00.042Z,59.20
2018-06-24T18:04:04.589Z,59.30
2018-06-24T18:06:09.263Z,59.30
2018-06-24T18:08:14.319Z,59.50
2018-06-24T18:10:18.954Z,59.60
2018-06-24T18:12:23.398Z,59.70
2018-06-24T18:14:27.859Z,59.80
2018-06-24T18:16:32.593Z,59.80
2018-06-24T18:18:37.010Z,59.70
2018-06-24T18:20:41.621Z,59.40
2018-06-24T18:22:47.270Z,59.50
2018-06-24T18:24:59.109Z,59.70
2018-06-24T18:27:06.816Z,59.70
2018-06-24T18:31:15.720Z,60.60
2018-06-24T18:33:20.179Z,60.60
2018-06-24T18:35:24.721Z,60.90
2018-06-24T18:37:29.271Z,61.00
2018-06-24T18:39:33.724Z,61.30
2018-06-24T18:41:38.592Z,61.50
2018-06-24T18:43:43.065Z,61.40
2018-06-24T18:45:47.725Z,61.40
2018-06-24T18:47:52.274Z,61.20
2018-06-24T18:49:56.783Z,61.20
2018-06-24T18:52:01.501Z,61.40
2018-06-24T18:54:06.024Z,61.50
2018-06-24T18:58:15.029Z,61.50
2018-06-24T19:00:19.541Z,61.30
2018-06-24T19:02:24.275Z,61.30
2018-06-24T19:04:28.687Z,61.40
2018-06-24T19:06:33.232Z,61.50
2018-06-24T19:08:37.671Z,61.60
2018-06-24T19:10:42.195Z,62.00
2018-06-24T19:12:46.667Z,61.90
2018-06-24T19:14:51.098Z,62.60
2018-06-24T19:16:55.670Z,61.80
2018-06-24T19:19:00.637Z,61.90
2018-06-24T19:21:05.705Z,61.90
2018-06-24T19:23:10.243Z,62.00
2018-06-24T19:25:14.760Z,62.30
2018-06-24T19:27:19.272Z,62.50
2018-06-24T19:29:23.723Z,62.70
2018-06-24T19:31:28.695Z,62.70
2018-06-24T19:33:33.152Z,63.00
2018-06-24T19:35:37.604Z,63.00
2018-06-24T19:37:42.066Z,63.00
2018-06-24T19:41:51.608Z,63.40
2018-06-24T19:43:56.059Z,63.40
2018-06-24T19:46:00.596Z,63.30
2018-06-24T19:48:05.103Z,63.40
2018-06-24T19:50:09.893Z,63.40
2018-06-24T19:52:14.312Z,63.50
2018-06-24T19:54:18.774Z,63.60
2018-06-24T19:56:23.319Z,63.70
2018-06-24T19:58:27.876Z,63.80
2018-06-24T20:02:36.747Z,63.80
2018-06-24T20:04:41.300Z,63.90
2018-06-24T20:06:45.755Z,64.40
2018-06-24T20:08:50.272Z,63.70
2018-06-24T20:10:54.717Z,63.90
2018-06-24T20:12:59.267Z,64.00
2018-06-24T20:15:03.760Z,64.00
2018-06-24T20:17:08.540Z,64.00
2018-06-24T20:19:13.041Z,64.10
2018-06-24T20:21:17.515Z,64.20
2018-06-24T20:23:22.239Z,64.20
2018-06-24T20:25:26.855Z,64.20
2018-06-24T20:27:31.294Z,64.30
2018-06-24T20:29:35.734Z,64.30
2018-06-24T20:31:40.230Z,64.40
2018-06-24T20:33:44.735Z,64.40
2018-06-24T20:37:53.804Z,65.40
2018-06-24T20:39:58.725Z,64.60
2018-06-24T20:42:03.482Z,64.70
2018-06-24T20:44:08.050Z,64.80
2018-06-24T20:46:13.174Z,64.80
2018-06-24T20:48:18.018Z,64.70
2018-06-24T20:50:24.851Z,64.80
2018-06-24T20:52:29.800Z,64.80
2018-06-24T20:54:35.445Z,64.70
2018-06-24T20:56:41.131Z,64.50
2018-06-24T20:58:45.674Z,64.60
2018-06-24T21:00:52.011Z,64.60
2018-06-24T21:02:57.104Z,64.70
2018-06-24T21:05:03.527Z,64.70
2018-06-24T21:07:08.119Z,64.60
2018-06-24T21:09:12.922Z,64.60
2018-06-24T21:11:17.818Z,64.60
2018-06-24T21:13:22.475Z,64.70
2018-06-24T21:15:26.884Z,64.70
2018-06-24T21:19:36.814Z,64.90
2018-06-24T21:21:41.436Z,64.80
2018-06-24T21:23:46.567Z,64.90
2018-06-24T21:25:51.722Z,65.00
2018-06-24T21:27:56.634Z,65.10
2018-06-24T21:30:01.054Z,64.90
2018-06-24T21:32:06.390Z,64.70
2018-06-24T21:34:11.675Z,64.80
2018-06-24T21:36:16.700Z,64.90
2018-06-24T21:38:21.707Z,64.90
2018-06-24T21:40:26.404Z,65.00
2018-06-24T21:42:31.243Z,64.90
2018-06-24T21:44:35.671Z,65.70
2018-06-24T21:46:40.206Z,66.00
2018-06-24T21:48:45.179Z,65.10
2018-06-24T21:50:49.842Z,65.00
2018-06-24T21:52:55.434Z,64.90
2018-06-24T21:54:59.908Z,64.90
2018-06-24T21:57:05.148Z,65.00
2018-06-24T21:59:11.076Z,65.00
2018-06-24T22:01:15.635Z,65.00
2018-06-24T22:03:20.093Z,65.10
2018-06-24T22:07:29.003Z,65.30
2018-06-24T22:09:33.458Z,65.00
2018-06-24T22:11:38.040Z,64.90
2018-06-24T22:13:42.523Z,65.10
2018-06-24T22:15:47.035Z,65.10
2018-06-24T22:17:51.526Z,65.40
2018-06-24T22:19:56.159Z,65.40
2018-06-24T22:22:00.866Z,65.50
2018-06-24T22:24:06.090Z,65.60
2018-06-24T22:26:10.753Z,65.60
2018-06-24T22:28:15.270Z,65.50
2018-06-24T22:30:19.694Z,65.70
2018-06-24T22:32:24.162Z,65.90
2018-06-24T22:34:28.690Z,65.80
2018-06-24T22:38:37.396Z,65.50
2018-06-24T22:40:41.842Z,65.50
2018-06-24T22:42:46.296Z,65.50
2018-06-24T22:44:51.688Z,65.30
2018-06-24T22:46:56.142Z,65.30
2018-06-24T22:49:00.595Z,65.30
2018-06-24T22:53:09.423Z,65.60
2018-06-24T22:55:13.892Z,65.60
2018-06-24T22:57:18.409Z,65.70
2018-06-24T22:59:40.289Z,66.50
2018-06-24T23:01:44.787Z,65.70
2018-06-24T23:03:49.294Z,65.60
2018-06-24T23:05:53.767Z,65.70
2018-06-24T23:07:58.804Z,65.70
2018-06-24T23:10:03.683Z,65.70
2018-06-24T23:12:08.150Z,65.90
2018-06-24T23:14:12.692Z,65.80
2018-06-24T23:16:17.126Z,65.60
2018-06-24T23:18:21.529Z,65.60
2018-06-24T23:20:25.987Z,65.80
2018-06-24T23:22:30.671Z,66.00
2018-06-24T23:24:35.120Z,65.90
2018-06-24T23:26:39.588Z,65.90
2018-06-24T23:30:48.939Z,66.00
2018-06-24T23:32:53.399Z,66.00
2018-06-24T23:34:57.844Z,66.30
2018-06-24T23:37:02.246Z,66.40
2018-06-24T23:39:09.664Z,66.50
2018-06-24T23:41:17.759Z,66.50
2018-06-24T23:43:24.550Z,66.60
2018-06-24T23:45:28.983Z,66.50
2018-06-24T23:47:33.383Z,66.50
2018-06-24T23:49:37.819Z,66.60
2018-06-24T23:51:42.248Z,66.50
2018-06-24T23:53:46.699Z,66.50
2018-06-24T23:55:51.123Z,66.60
2018-06-24T23:57:55.589Z,66.60
